createdAt,value
2023-11-23T05:42:15.510Z,101060.78
2023-11-23T05:45:19.996Z,101060.78
2023-11-23T05:48:22.689Z,101060.53
2023-11-23T05:51:25.313Z,101071.13
2023-11-23T05:54:27.954Z,101071.41
2023-11-23T05:57:30.541Z,101063.22
2023-11-23T06:00:33.156Z,101075.19
2023-11-23T06:03:35.894Z,101073.56
2023-11-23T06:06:38.469Z,101075.66
2023-11-23T06:09:40.983Z,101078.81
2023-11-23T06:12:43.500Z,101088.66
2023-11-23T06:15:46.481Z,101081.47
2023-11-23T06:18:49.239Z,101079.81
2023-11-23T06:21:51.807Z,101060.56
2023-11-23T06:24:54.357Z,101070.69
2023-11-23T06:28:08.436Z,101058.81
2023-11-23T06:31:18.671Z,101071.47
2023-11-23T06:34:21.209Z,101078.94
2023-11-23T06:37:23.727Z,101079.97
2023-11-23T06:40:26.244Z,101073.00
2023-11-23T06:43:28.805Z,101069.38
2023-11-23T06:46:31.421Z,101085.63
2023-11-23T06:49:34.083Z,101089.91
2023-11-23T06:52:36.593Z,101078.66
2023-11-23T06:55:39.093Z,101075.47
2023-11-23T06:58:47.639Z,101075.62
2023-11-23T07:01:50.389Z,101076.88
2023-11-23T07:04:53.093Z,101058.50
2023-11-23T07:07:56.470Z,101060.00
2023-11-23T07:11:00.444Z,101049.34
2023-11-23T07:14:03.049Z,101042.12
2023-11-23T07:17:05.626Z,101043.28
2023-11-23T07:20:08.673Z,101054.37
2023-11-23T07:23:11.957Z,101054.25
2023-11-23T07:26:14.458Z,101060.75
2023-11-23T07:29:17.001Z,101052.62
2023-11-23T07:32:19.442Z,101056.19
2023-11-23T07:35:21.986Z,101057.00
2023-11-23T07:38:24.511Z,101062.78
2023-11-23T07:41:27.161Z,101071.34
2023-11-23T07:44:29.660Z,101076.41
2023-11-23T07:47:32.568Z,101060.91
2023-11-23T07:50:35.137Z,101058.25
2023-11-23T07:53:37.639Z,101058.56
2023-11-23T07:56:42.293Z,101059.00
2023-11-23T07:59:44.832Z,101054.00
2023-11-23T08:02:47.971Z,101044.16
2023-11-23T08:05:50.615Z,101056.22
2023-11-23T08:08:53.877Z,101037.37
2023-11-23T08:11:57.498Z,101031.34
2023-11-23T08:15:00.535Z,101035.38
2023-11-23T08:18:07.920Z,101029.09
2023-11-23T08:21:12.524Z,101024.38
2023-11-23T08:24:16.365Z,101012.84
2023-11-23T08:27:18.981Z,101018.97
2023-11-23T08:30:23.565Z,101017.94
2023-11-23T08:33:26.778Z,101008.31
2023-11-23T08:36:29.391Z,101018.50
2023-11-23T08:39:32.039Z,101010.19
2023-11-23T08:42:34.821Z,100999.44
2023-11-23T08:45:37.384Z,100999.13
2023-11-23T08:48:41.087Z,101006.56
2023-11-23T08:51:43.758Z,101000.56
2023-11-23T08:54:46.261Z,101004.88
2023-11-23T08:57:52.264Z,101004.06
2023-11-23T09:00:55.070Z,100999.00
2023-11-23T09:03:58.237Z,101006.97
2023-11-23T09:07:00.881Z,100995.41
2023-11-23T09:10:03.718Z,100992.81
2023-11-23T09:13:06.513Z,100986.03
2023-11-23T09:16:09.390Z,100987.03
2023-11-23T09:19:14.552Z,100993.94
2023-11-23T09:22:16.956Z,101000.44
2023-11-23T09:25:19.787Z,100994.72
2023-11-23T09:28:23.509Z,100999.75
2023-11-23T09:31:31.320Z,100993.00
2023-11-23T09:34:34.694Z,100995.19
2023-11-23T09:37:38.438Z,100992.63
2023-11-23T09:40:42.127Z,100982.44
2023-11-23T09:43:45.184Z,100974.66
2023-11-23T09:46:49.493Z,100969.75
2023-11-23T09:49:53.910Z,100964.75
2023-11-23T09:53:27.904Z,100957.16
2023-11-23T09:56:33.413Z,100966.34
2023-11-23T09:59:37.166Z,100960.16
2023-11-23T10:02:40.053Z,100957.22
2023-11-23T10:05:42.616Z,100948.69
2023-11-23T10:08:45.171Z,100945.81
2023-11-23T10:11:48.294Z,100934.63
2023-11-23T10:14:54.033Z,100928.69
2023-11-23T10:17:57.804Z,100915.94
2023-11-23T10:21:00.384Z,100910.47
2023-11-23T10:24:09.374Z,100915.88
2023-11-23T10:27:12.090Z,100907.09
2023-11-23T10:30:14.985Z,100899.47
2023-11-23T10:33:17.672Z,100895.09
2023-11-23T10:36:22.419Z,100891.81
2023-11-23T10:39:25.089Z,100879.62
2023-11-23T10:42:27.773Z,100870.94
2023-11-23T10:45:33.744Z,100874.69
2023-11-23T10:48:38.792Z,100870.56
2023-11-23T10:51:42.821Z,100860.00
2023-11-23T10:54:45.466Z,100854.44
2023-11-23T10:57:57.628Z,100848.69
2023-11-23T11:01:03.870Z,100843.56
2023-11-23T11:04:07.145Z,100838.53
2023-11-23T11:07:11.861Z,100830.31
2023-11-23T11:10:15.344Z,100824.38
2023-11-23T11:13:20.015Z,100827.22
2023-11-23T11:16:23.756Z,100834.63
2023-11-23T11:19:27.821Z,100830.84
2023-11-23T11:22:32.293Z,100832.03
2023-11-23T11:25:41.350Z,100823.25
2023-11-23T11:28:44.137Z,100822.44
2023-11-23T11:31:49.770Z,100806.37
2023-11-23T11:35:00.887Z,100802.97
2023-11-23T11:38:04.304Z,100791.22
2023-11-23T11:41:08.960Z,100794.50
2023-11-23T11:44:14.704Z,100785.25
2023-11-23T11:47:18.392Z,100787.62
2023-11-23T11:50:21.889Z,100793.94
2023-11-23T11:53:24.587Z,100786.34
2023-11-23T11:56:27.410Z,100784.84
2023-11-23T11:59:31.462Z,100777.16
2023-11-23T12:02:34.142Z,100768.69
2023-11-23T12:05:40.998Z,100757.50
2023-11-23T12:08:44.382Z,100747.19
2023-11-23T12:11:47.286Z,100748.00
2023-11-23T12:14:49.887Z,100746.31
2023-11-23T12:17:54.916Z,100737.75
2023-11-23T12:20:57.534Z,100725.69
2023-11-23T12:24:01.503Z,100720.59
2023-11-23T12:27:04.513Z,100708.47
2023-11-23T12:30:07.713Z,100703.25
2023-11-23T12:33:10.280Z,100688.69
2023-11-23T12:36:13.889Z,100684.34
2023-11-23T12:39:16.968Z,100684.44
2023-11-23T12:42:19.625Z,100687.03
2023-11-23T12:45:23.198Z,100682.78
2023-11-23T12:48:27.542Z,100674.25
2023-11-23T12:51:30.246Z,100674.25
2023-11-23T12:54:34.407Z,100663.09
2023-11-23T12:57:38.867Z,100660.44
2023-11-23T13:00:43.140Z,100639.69
2023-11-23T13:03:47.164Z,100642.38
2023-11-23T13:06:49.881Z,100635.47
2023-11-23T13:09:52.878Z,100629.44
2023-11-23T13:12:59.268Z,100638.94
2023-11-23T13:16:02.809Z,100629.41
2023-11-23T13:19:21.499Z,100631.16
2023-11-23T13:22:32.308Z,100625.09
2023-11-23T13:25:38.746Z,100618.16
2023-11-23T13:28:50.072Z,100619.94
2023-11-23T13:31:59.334Z,100617.31
2023-11-23T13:35:04.148Z,100598.16
2023-11-23T13:38:07.096Z,100599.09
2023-11-23T13:41:11.873Z,100599.03
2023-11-23T14:11:09.986Z,100532.28
2023-11-23T14:14:13.071Z,100509.81
2023-11-23T14:17:53.441Z,100514.84
2023-11-23T14:20:56.314Z,100501.13
2023-11-23T14:24:36.527Z,100503.56
2023-11-23T14:28:17.333Z,100506.25
2023-11-23T14:31:24.225Z,100505.34
2023-11-23T14:34:29.308Z,100495.78
2023-11-23T14:37:33.173Z,100489.69
2023-11-23T14:40:37.272Z,100493.97
2023-11-23T14:43:40.702Z,100486.91
2023-11-23T14:46:50.737Z,100482.59
2023-11-23T14:49:54.059Z,100480.94
2023-11-23T14:52:57.969Z,100461.81
2023-11-23T14:56:01.979Z,100460.06
2023-11-23T14:59:07.513Z,100460.00
2023-11-23T15:02:10.359Z,100460.84
2023-11-23T15:05:14.156Z,100444.66
2023-11-23T15:08:17.812Z,100452.22
2023-11-23T15:11:20.609Z,100454.91
2023-11-23T15:14:23.248Z,100457.37
2023-11-23T15:17:27.112Z,100456.25
2023-11-23T15:20:31.821Z,100448.53
2023-11-23T15:23:35.756Z,100441.75
2023-11-23T15:26:39.600Z,100438.34
2023-11-23T15:29:44.620Z,100438.84
2023-11-23T15:32:47.315Z,100441.34
2023-11-23T15:35:50.466Z,100431.94
2023-11-23T15:38:53.053Z,100433.50
2023-11-23T15:41:55.706Z,100427.50
2023-11-23T15:44:58.208Z,100418.00
2023-11-23T15:48:00.928Z,100409.28
